East Wemyss, United Kingdom
Current Conditions -  °F | °C
As of 11:50 PM on Friday 19 Dec 2014 (Local Time) from EGQL Reporting Station
Clear Clear  
Wind Chill: 33°   Ceiling: Unl
Heat Index: 41°   Visibility: 6mi
Dew Point: 36°   Wind: 15mph
Humidity: 81%   Direction: 260°W
Pressure: 29.71"   Gusts: NA
Location:  56.16°N, 3.06°W
Report Text: EGQL 192350Z 26013KT CAVOK 05/02 Q1006 BLU
Loading
Personal Weather Stations






























Interactive Weather Map New forecast layout! Learn more

10-Day Weather Forecast

Advertisements
Track Severe Weather on mobile